Time;durP1;ratioP1;P1;durP2;ratioP2;P2;SDS_P1;SDS_P2;PMS_P1;PMS_P2;Temp;Humidity;BMP_temperature;BMP_pressure;BME280_temperature;BME280_humidity;BME280_pressure;Samples;Min_cycle;Max_cycle;Signal;HPM_P1;HPM_P2
2022/10/01 00:02:30;;;;;;;;;;;;;;;25.23;44.36;94094.63;5049107;28;7409;-60
2022/10/01 00:05:01;;;;;;;;;;;;;;;25.19;43.86;94089.41;5054438;28;7032;-60
2022/10/01 00:07:47;;;;;;;;;;;;;;;25.19;43.48;94083.91;5059222;28;7490;-60
2022/10/01 00:10:15;;;;;;;;;;;;;;;25.19;43.86;94083.16;5046043;28;9447;-60
2022/10/01 00:12:52;;;;;;;;;;;;;;;25.17;44.34;94089.19;5040627;28;7933;-61
2022/10/01 00:15:18;;;;;;;;;;;;;;;25.18;43.92;94090.69;5050449;28;7141;-60
2022/10/01 00:18:12;;;;;;;;;;;;;;;25.16;43.67;94087.72;5046769;28;7188;-60
2022/10/01 00:20:42;;;;;;;;;;;;;;;25.15;44.65;94091.72;5079435;28;7134;-60
2022/10/01 00:23:20;;;;;;;;;;;;;;;25.15;43.90;94085.47;5070673;28;7419;-60
2022/10/01 00:26:21;;;;;;;;;;;;;;;25.13;43.64;94085.22;5060508;28;7246;-60
2022/10/01 00:29:00;;;;;;;;;;;;;;;25.13;44.26;94085.22;5041112;28;7361;-60
2022/10/01 00:31:59;;;;;;;;;;;;;;;25.13;44.37;94082.47;5058139;28;7525;-60
2022/10/01 00:34:52;;;;;;;;;;;;;;;25.14;44.64;94081.22;5004676;28;8599;-60
2022/10/01 00:37:28;;;;;;;;;;;;;;;25.11;44.57;94079.50;4979323;28;7128;-60
2022/10/01 00:40:00;;;;;;;;;;;;;;;25.10;43.73;94092.50;4976786;28;9302;-60
2022/10/01 00:42:35;;;;;;;;;;;;;;;25.10;43.81;94092.50;4996185;28;9096;-60
2022/10/01 00:45:38;;;;;;;;;;;;;;;25.11;44.53;94098.75;4990379;28;8854;-60
2022/10/01 00:48:04;;;;;;;;;;;;;;;25.11;44.34;94098.75;4921480;29;7300;-60
2022/10/01 00:50:33;;;;;;;;;;;;;;;25.09;44.02;94101.28;4906332;29;7228;-60
2022/10/01 00:53:11;;;;;;;;;;;;;;;25.06;44.21;94100.31;4919468;29;7303;-60
2022/10/01 00:55:47;;;;;;;;;;;;;;;25.08;44.45;94103.28;4913505;29;7435;-60
2022/10/01 00:58:15;;;;;;;;;;;;;;;25.08;44.49;94108.03;4930808;29;7292;-60
2022/10/01 01:00:42;;;;;;;;;;;;;;;25.08;44.08;94103.28;4918189;29;9313;-60
2022/10/01 01:03:14;;;;;;;;;;;;;;;25.08;44.43;94108.03;4923858;29;7043;-60
2022/10/01 01:05:40;;;;;;;;;;;;;;;25.07;44.35;94101.06;4914792;29;9457;-60
2022/10/01 01:08:08;;;;;;;;;;;;;;;25.06;44.03;94099.53;4918802;29;8225;-60
2022/10/01 01:10:50;;;;;;;;;;;;;;;25.05;44.20;94090.56;4929806;28;7058;-60
2022/10/01 01:13:42;;;;;;;;;;;;;;;25.05;44.36;94098.81;5003155;28;9604;-60
2022/10/01 01:16:32;;;;;;;;;;;;;;;25.06;44.67;94091.28;4998177;28;7311;-60
2022/10/01 01:19:44;;;;;;;;;;;;;;;25.05;43.90;94101.56;4971796;28;7260;-60
2022/10/01 01:22:24;;;;;;;;;;;;;;;25.04;43.77;94107.56;4917705;29;9048;-60
2022/10/01 01:25:21;;;;;;;;;;;;;;;25.05;43.63;94087.06;4971341;28;7301;-60
2022/10/01 01:28:11;;;;;;;;;;;;;;;25.07;44.02;94057.03;4981549;28;7273;-60
2022/10/01 01:30:40;;;;;;;;;;;;;;;25.03;43.81;94081.34;4965432;28;7207;-60
2022/10/01 01:33:20;;;;;;;;;;;;;;;25.03;44.47;94089.59;4983172;28;9757;-60
2022/10/01 01:35:57;;;;;;;;;;;;;;;25.03;44.44;94078.59;4973478;28;6938;-60
2022/10/01 01:38:39;;;;;;;;;;;;;;;25.03;44.11;94084.09;4982683;28;7321;-60
2022/10/01 01:41:19;;;;;;;;;;;;;;;25.00;43.97;94087.84;4988279;28;7510;-61
2022/10/01 01:43:50;;;;;;;;;;;;;;;25.01;44.07;94098.34;4970511;28;10660;-60
2022/10/01 01:46:22;;;;;;;;;;;;;;;25.02;44.07;94088.09;4968940;28;9037;-60
2022/10/01 01:48:52;;;;;;;;;;;;;;;25.01;44.31;94094.84;4971484;28;7223;-60
2022/10/01 01:51:35;;;;;;;;;;;;;;;25.02;43.75;94090.84;4973403;28;7560;-60
2022/10/01 01:54:02;;;;;;;;;;;;;;;25.01;43.92;94092.84;4984391;28;6964;-60
2022/10/01 01:56:45;;;;;;;;;;;;;;;25.00;44.17;94087.84;4973983;28;7272;-60
2022/10/01 01:59:12;;;;;;;;;;;;;;;24.98;44.63;94087.63;5031655;28;7979;-60
2022/10/01 02:01:43;;;;;;;;;;;;;;;24.98;43.97;94091.13;5064296;28;7427;-60
2022/10/01 02:04:45;;;;;;;;;;;;;;;24.97;44.63;94084.13;5047540;28;7184;-60
2022/10/01 02:07:41;;;;;;;;;;;;;;;24.97;43.91;94092.38;5048787;28;7026;-60
2022/10/01 02:10:25;;;;;;;;;;;;;;;24.97;43.71;94080.63;5073027;28;7339;-60
2022/10/01 02:13:25;;;;;;;;;;;;;;;24.95;43.94;94083.13;5055439;28;10198;-61
2022/10/01 02:16:17;;;;;;;;;;;;;;;24.96;44.64;94070.88;5069529;28;9263;-61
2022/10/01 02:19:14;;;;;;;;;;;;;;;24.94;43.72;94062.41;5064039;28;7219;-60
2022/10/01 02:22:03;;;;;;;;;;;;;;;24.93;44.10;94069.16;5055927;28;9737;-60
2022/10/01 02:25:05;;;;;;;;;;;;;;;24.92;44.11;94062.16;5036864;28;7244;-60
2022/10/01 02:27:43;;;;;;;;;;;;;;;24.95;43.95;94055.63;4973470;28;9147;-60
2022/10/01 02:30:11;;;;;;;;;;;;;;;24.93;44.61;94052.63;4987009;28;9106;-60
2022/10/01 02:32:53;;;;;;;;;;;;;;;24.92;43.95;94040.91;4975831;28;7575;-61
2022/10/01 02:35:21;;;;;;;;;;;;;;;24.93;43.89;94041.63;4982661;28;7807;-60
2022/10/01 02:38:01;;;;;;;;;;;;;;;24.93;44.51;94042.38;4985523;28;7384;-60
2022/10/01 02:40:40;;;;;;;;;;;;;;;24.95;44.12;94042.63;4985752;28;7312;-60
2022/10/01 02:43:28;;;;;;;;;;;;;;;24.93;44.05;94038.88;4979867;28;7254;-60
2022/10/01 02:46:14;;;;;;;;;;;;;;;24.92;44.29;94031.91;4974764;28;8196;-60
2022/10/01 02:48:43;;;;;;;;;;;;;;;24.92;44.38;94020.91;4970870;28;7209;-60
2022/10/01 02:51:30;;;;;;;;;;;;;;;24.90;44.28;94021.44;4964931;28;7095;-60
2022/10/01 02:54:09;;;;;;;;;;;;;;;24.92;44.58;94026.41;4969222;28;6856;-60
2022/10/01 02:59:26;;;;;;;;;;;;;;;24.92;44.36;94031.91;4979006;28;8799;-60
2022/10/01 03:01:52;;;;;;;;;;;;;;;24.93;43.67;94036.13;4980008;28;7474;-61
2022/10/01 03:04:21;;;;;;;;;;;;;;;24.89;44.01;94032.94;5039525;28;7158;-60
2022/10/01 03:06:49;;;;;;;;;;;;;;;24.90;44.02;94034.44;5056454;28;9130;-60
2022/10/01 03:09:17;;;;;;;;;;;;;;;24.90;44.42;94045.44;5063364;28;8608;-60
2022/10/01 03:11:43;;;;;;;;;;;;;;;24.89;44.22;94041.19;5049555;28;7245;-60
2022/10/01 03:14:09;;;;;;;;;;;;;;;24.89;43.93;94047.44;5076349;28;9336;-60
2022/10/01 03:16:48;;;;;;;;;;;;;;;24.90;44.56;94042.69;5054387;28;7244;-60
2022/10/01 03:19:15;;;;;;;;;;;;;;;24.91;44.24;94033.16;5041508;28;8577;-60
2022/10/01 03:21:46;;;;;;;;;;;;;;;24.90;44.29;94031.69;5071672;28;7293;-60
2022/10/01 03:24:15;;;;;;;;;;;;;;;24.89;43.84;94024.66;5070917;28;9090;-60
2022/10/01 03:26:44;;;;;;;;;;;;;;;24.87;44.34;94016.19;5048656;28;7211;-60
2022/10/01 03:29:15;;;;;;;;;;;;;;;24.85;43.71;94024.22;5072138;28;7252;-60
2022/10/01 03:31:46;;;;;;;;;;;;;;;24.87;44.37;94025.19;5056574;28;7248;-60
2022/10/01 03:34:12;;;;;;;;;;;;;;;24.83;43.89;94012.97;5037029;28;7444;-60
2022/10/01 03:36:38;;;;;;;;;;;;;;;24.81;44.60;94015.50;5045334;28;9359;-60
2022/10/01 03:39:09;;;;;;;;;;;;;;;24.82;44.74;94016.97;5052544;28;7234;-60
2022/10/01 03:41:41;;;;;;;;;;;;;;;24.81;44.18;94018.25;5042547;28;9698;-60
2022/10/01 03:44:09;;;;;;;;;;;;;;;24.81;44.66;94024.50;5043558;28;8768;-60
2022/10/01 03:46:38;;;;;;;;;;;;;;;24.82;43.90;94014.97;5050731;28;7107;-60
2022/10/01 03:49:06;;;;;;;;;;;;;;;24.80;44.04;94011.25;5059534;28;7315;-60
2022/10/01 03:51:32;;;;;;;;;;;;;;;24.80;43.57;94014.75;5050635;28;7200;-60
2022/10/01 03:53:58;;;;;;;;;;;;;;;24.81;44.54;94010.75;5066416;28;6992;-60
2022/10/01 03:56:25;;;;;;;;;;;;;;;24.79;44.32;94018.03;5053857;28;7296;-60
2022/10/01 03:58:55;;;;;;;;;;;;;;;24.79;43.88;94023.53;5055123;28;9490;-60
2022/10/01 04:01:22;;;;;;;;;;;;;;;24.79;44.32;94021.53;5050634;28;7463;-59
2022/10/01 04:03:56;;;;;;;;;;;;;;;24.80;43.78;94027.75;5081501;28;7176;-60
2022/10/01 04:06:27;;;;;;;;;;;;;;;24.80;44.21;94030.50;5057409;28;6990;-60
2022/10/01 04:08:54;;;;;;;;;;;;;;;24.78;44.42;94033.78;5044324;28;7403;-60
2022/10/01 04:11:20;;;;;;;;;;;;;;;24.78;44.42;94024.78;5053243;28;9101;-60
2022/10/01 04:13:58;;;;;;;;;;;;;;;24.78;44.22;94022.03;5076044;28;9686;-60
2022/10/01 04:16:44;;;;;;;;;;;;;;;24.77;44.32;94023.28;5060385;28;7243;-60
2022/10/01 04:19:10;;;;;;;;;;;;;;;24.77;44.53;94034.31;5061442;28;8989;-60
2022/10/01 04:21:38;;;;;;;;;;;;;;;24.78;43.83;94035.78;5072226;28;9074;-60
2022/10/01 04:24:05;;;;;;;;;;;;;;;24.77;44.25;94035.06;5058516;28;7306;-60
2022/10/01 04:26:40;;;;;;;;;;;;;;;24.77;43.61;94028.81;5068997;28;7355;-60
2022/10/01 04:29:21;;;;;;;;;;;;;;;24.77;44.62;94040.56;5059811;28;7190;-60
2022/10/01 04:31:48;;;;;;;;;;;;;;;24.78;44.34;94052.28;5041786;28;7277;-60
2022/10/01 04:37:26;;;;;;;;;;;;;;;24.77;44.30;94056.31;5057829;28;7302;-60
2022/10/01 04:39:56;;;;;;;;;;;;;;;24.76;44.00;94061.06;5045366;28;8102;-60
2022/10/01 04:42:31;;;;;;;;;;;;;;;24.78;43.76;94057.78;5063636;28;8808;-60
2022/10/01 04:44:57;;;;;;;;;;;;;;;24.77;43.49;94056.31;5068742;28;6980;-60
2022/10/01 04:47:23;;;;;;;;;;;;;;;24.77;44.04;94056.31;5065033;28;7367;-60
2022/10/01 04:49:49;;;;;;;;;;;;;;;24.76;43.65;94046.56;5038136;28;9237;-60
2022/10/01 04:52:18;;;;;;;;;;;;;;;24.75;44.10;94047.81;5048040;28;7836;-60
2022/10/01 04:54:45;;;;;;;;;;;;;;;24.75;44.42;94059.53;5071171;28;8157;-61
2022/10/01 04:57:11;;;;;;;;;;;;;;;24.76;44.03;94057.56;5048929;28;7159;-60
2022/10/01 04:59:37;;;;;;;;;;;;;;;24.74;43.71;94055.28;5056585;28;6980;-60
2022/10/01 05:02:16;;;;;;;;;;;;;;;24.75;44.54;94064.31;5029596;28;7212;-60
2022/10/01 05:04:51;;;;;;;;;;;;;;;24.74;44.52;94060.78;5045815;28;7236;-60
2022/10/01 05:07:29;;;;;;;;;;;;;;;24.77;44.30;94056.31;5052963;28;6895;-60
2022/10/01 05:09:57;;;;;;;;;;;;;;;24.76;43.92;94065.81;5078329;28;7206;-61
2022/10/01 05:12:31;;;;;;;;;;;;;;;24.73;43.44;94068.28;5075231;28;6996;-60
2022/10/01 05:14:59;;;;;;;;;;;;;;;24.74;43.06;94080.03;5048341;28;8205;-60
2022/10/01 05:17:32;;;;;;;;;;;;;;;24.75;43.08;94080.81;5048949;28;6921;-60
2022/10/01 05:20:00;;;;;;;;;;;;;;;24.73;43.22;94084.78;5064221;28;9059;-60
2022/10/01 05:22:26;;;;;;;;;;;;;;;24.72;43.04;94079.81;5074000;28;7888;-60
2022/10/01 05:25:24;;;;;;;;;;;;;;;24.73;42.81;94084.03;5050561;28;9030;-60
2022/10/01 05:28:04;;;;;;;;;;;;;;;24.72;43.69;94082.56;4986041;28;9458;-60
2022/10/01 05:30:46;;;;;;;;;;;;;;;24.73;43.51;94087.53;4989827;28;7446;-60
2022/10/01 05:33:12;;;;;;;;;;;;;;;24.73;43.20;94083.31;4996811;28;7231;-60
2022/10/01 05:35:46;;;;;;;;;;;;;;;24.71;42.95;94076.31;4995935;28;8706;-60
2022/10/01 05:38:41;;;;;;;;;;;;;;;24.75;43.13;94072.56;4988203;28;7276;-61
2022/10/01 05:41:39;;;;;;;;;;;;;;;24.72;43.51;94071.56;4950122;28;7232;-60
2022/10/01 05:44:07;;;;;;;;;;;;;;;24.73;43.02;94072.31;4920130;29;7274;-60
2022/10/01 05:46:59;;;;;;;;;;;;;;;24.70;43.48;94076.84;4934413;29;7314;-61
2022/10/01 05:49:27;;;;;;;;;;;;;;;24.68;43.45;94082.81;4933591;28;7597;-60
2022/10/01 05:51:55;;;;;;;;;;;;;;;24.65;43.01;94086.63;4934176;29;7232;-60
2022/10/01 05:54:23;;;;;;;;;;;;;;;24.65;44.06;94083.88;4922129;29;7668;-60
2022/10/01 05:56:50;;;;;;;;;;;;;;;24.67;43.71;94080.59;4928769;29;6985;-60
2022/10/01 05:59:25;;;;;;;;;;;;;;;24.66;43.75;94079.84;4932624;28;7065;-60
2022/10/01 06:02:27;;;;;;;;;;;;;;;24.67;43.64;94088.84;4921438;29;7249;-60
2022/10/01 06:04:56;;;;;;;;;;;;;;;24.68;43.74;94082.09;4920939;29;7441;-60
2022/10/01 06:07:34;;;;;;;;;;;;;;;24.64;43.43;94087.84;4935787;28;8883;-60
2022/10/01 06:10:22;;;;;;;;;;;;;;;24.64;43.75;94089.88;4931733;28;7266;-60
2022/10/01 06:12:49;;;;;;;;;;;;;;;24.66;43.85;94084.63;4933060;28;8823;-61
2022/10/01 06:15:46;;;;;;;;;;;;;;;24.62;43.38;94082.13;4931686;29;6895;-60
2022/10/01 06:18:12;;;;;;;;;;;;;;;24.64;43.91;94085.09;4907853;29;7067;-60
2022/10/01 06:20:40;;;;;;;;;;;;;;;24.64;43.64;94085.09;4907761;29;9072;-60
2022/10/01 06:23:11;;;;;;;;;;;;;;;24.60;44.51;94084.66;4934382;28;7214;-60
2022/10/01 06:26:06;;;;;;;;;;;;;;;24.60;44.19;94092.91;4936607;28;8713;-60
2022/10/01 06:28:44;;;;;;;;;;;;;;;24.57;43.88;94088.44;4879942;29;7379;-60
2022/10/01 06:31:12;;;;;;;;;;;;;;;24.53;44.04;94087.94;4894788;29;7227;-60
2022/10/01 06:33:38;;;;;;;;;;;;;;;24.53;44.88;94082.44;4895558;29;7311;-60
2022/10/01 06:36:04;;;;;;;;;;;;;;;24.53;44.72;94093.44;4895849;29;7203;-60
2022/10/01 06:38:43;;;;;;;;;;;;;;;24.58;44.48;94084.41;4895812;29;7194;-61
2022/10/01 06:41:23;;;;;;;;;;;;;;;24.62;44.19;94087.63;4946094;28;9077;-60
2022/10/01 06:44:04;;;;;;;;;;;;;;;24.68;44.25;94087.59;4958706;28;7246;-60
2022/10/01 06:46:31;;;;;;;;;;;;;;;24.73;44.35;94089.53;4958007;28;9212;-60
2022/10/01 06:49:00;;;;;;;;;;;;;;;24.80;44.10;94089.03;4971548;28;7792;-60
2022/10/01 06:54:24;;;;;;;;;;;;;;;24.94;43.76;94078.91;4977598;28;8602;-60
2022/10/01 06:56:51;;;;;;;;;;;;;;;24.98;43.60;94082.88;4997900;28;9369;-60
2022/10/01 06:59:20;;;;;;;;;;;;;;;25.04;43.90;94080.81;4983715;28;7230;-60
2022/10/01 07:02:04;;;;;;;;;;;;;;;25.10;43.44;94080.78;4992539;28;8046;-60
2022/10/01 07:04:46;;;;;;;;;;;;;;;25.14;43.23;94078.47;5000127;28;9163;-60
2022/10/01 07:07:13;;;;;;;;;;;;;;;25.20;43.13;94081.91;5051632;28;9024;-61
2022/10/01 07:10:08;;;;;;;;;;;;;;;25.27;43.64;94082.06;5060154;28;9352;-60
2022/10/01 07:12:47;;;;;;;;;;;;;;;25.35;43.01;94077.50;5011997;28;9975;-60
2022/10/01 07:15:22;;;;;;;;;;;;;;;25.38;43.26;94081.97;4995099;28;9048;-60
2022/10/01 07:17:50;;;;;;;;;;;;;;;25.42;42.87;94074.19;4991587;28;7217;-60
2022/10/01 07:20:43;;;;;;;;;;;;;;;25.48;43.13;94079.66;5018976;28;7244;-60
2022/10/01 07:23:15;;;;;;;;;;;;;;;25.50;42.75;94076.38;5000036;28;10529;-61
2022/10/01 07:25:50;;;;;;;;;;;;;;;25.52;42.32;94080.09;5020855;28;9443;-60
2022/10/01 07:28:26;;;;;;;;;;;;;;;25.54;42.85;94082.31;4994623;28;7324;-60
2022/10/01 07:31:10;;;;;;;;;;;;;;;25.59;43.16;94089.78;5011251;28;8973;-60
2022/10/01 07:33:38;;;;;;;;;;;;;;;25.58;43.24;94078.03;5022948;28;7244;-60
2022/10/01 07:36:06;;;;;;;;;;;;;;;25.59;42.50;94079.53;5014052;28;8285;-60
2022/10/01 07:38:43;;;;;;;;;;;;;;;25.59;42.86;94078.78;5012702;28;7330;-60
2022/10/01 07:41:09;;;;;;;;;;;;;;;25.59;43.16;94071.25;5003011;28;9728;-60
2022/10/01 07:43:36;;;;;;;;;;;;;;;25.59;42.72;94060.25;4990830;28;7403;-60
2022/10/01 07:46:03;;;;;;;;;;;;;;;25.61;43.32;94068.72;4988609;28;7477;-60
2022/10/01 07:48:31;;;;;;;;;;;;;;;25.61;42.27;94054.97;5007398;28;7148;-59
2022/10/01 07:50:57;;;;;;;;;;;;;;;25.64;42.34;94058.69;5063970;28;7278;-60
2022/10/01 07:53:42;;;;;;;;;;;;;;;25.68;42.22;94065.41;5075568;28;7255;-60
2022/10/01 07:56:42;;;;;;;;;;;;;;;25.75;42.57;94056.53;5050831;28;9221;-60
2022/10/01 07:59:19;;;;;;;;;;;;;;;25.80;42.71;94055.72;5006572;28;8860;-59
2022/10/01 08:01:53;;;;;;;;;;;;;;;25.89;42.79;94054.63;5015683;28;7495;-60
2022/10/01 08:07:37;;;;;;;;;;;;;;;25.99;41.70;94067.50;4931657;29;7524;-60
2022/10/01 08:10:16;;;;;;;;;;;;;;;26.03;42.08;94059.66;4945865;28;7261;-60
2022/10/01 08:12:44;;;;;;;;;;;;;;;26.06;42.02;94060.66;4932593;28;6995;-61
2022/10/01 08:15:25;;;;;;;;;;;;;;;26.09;41.96;94063.16;4917012;29;7382;-59
2022/10/01 08:17:54;;;;;;;;;;;;;;;26.10;41.84;94056.34;4948654;28;9047;-60
2022/10/01 08:20:33;;;;;;;;;;;;;;;26.13;41.86;94060.09;4947513;28;9283;-59
2022/10/01 08:23:11;;;;;;;;;;;;;;;26.15;41.25;94063.81;4932014;28;9981;-60
2022/10/01 08:25:43;;;;;;;;;;;;;;;26.15;41.72;94069.31;4947153;28;7647;-60
2022/10/01 08:28:18;;;;;;;;;;;;;;;26.18;41.76;94078.56;4944384;28;6995;-60
2022/10/01 08:31:06;;;;;;;;;;;;;;;26.19;41.46;94071.78;4933596;28;7185;-61
2022/10/01 08:33:33;;;;;;;;;;;;;;;26.20;41.37;94080.78;4931936;28;7478;-61
2022/10/01 08:36:08;;;;;;;;;;;;;;;26.20;41.57;94080.78;4987931;28;7200;-61
2022/10/01 08:39:11;;;;;;;;;;;;;;;26.22;42.20;94075.50;4962839;28;8845;-60
2022/10/01 08:42:00;;;;;;;;;;;;;;;26.22;42.10;94073.50;4928013;28;8478;-60
2022/10/01 08:44:40;;;;;;;;;;;;;;;26.21;42.36;94069.22;4983210;28;9414;-60
2022/10/01 08:47:17;;;;;;;;;;;;;;;26.24;41.86;94061.94;4998372;28;7210;-60
2022/10/01 08:49:54;;;;;;;;;;;;;;;26.22;42.47;94056.19;5028656;28;7261;-60
2022/10/01 08:52:27;;;;;;;;;;;;;;;26.23;41.82;94057.72;4989306;28;7379;-60
2022/10/01 08:55:03;;;;;;;;;;;;;;;26.23;42.18;94047.41;4993378;28;6992;-60
2022/10/01 08:57:50;;;;;;;;;;;;;;;26.24;42.73;94057.16;4996563;28;7238;-60
2022/10/01 09:00:17;;;;;;;;;;;;;;;26.24;42.03;94053.66;5016206;28;9114;-60
2022/10/01 09:02:47;;;;;;;;;;;;;;;26.23;42.58;94047.41;5003112;28;9323;-60
2022/10/01 09:05:19;;;;;;;;;;;;;;;26.24;41.95;94053.66;5014964;28;9490;-60
2022/10/01 09:08:19;;;;;;;;;;;;;;;26.23;42.27;94060.47;5018482;28;7314;-61
2022/10/01 09:11:11;;;;;;;;;;;;;;;26.19;42.73;94058.00;4995954;28;6881;-61
2022/10/01 09:14:21;;;;;;;;;;;;;;;26.20;42.17;94070.50;5002091;28;7591;-61
2022/10/01 09:17:09;;;;;;;;;;;;;;;26.17;42.26;94075.06;5042159;28;9466;-60
2022/10/01 09:20:30;;;;;;;;;;;;;;;26.16;43.28;94075.59;5041370;28;8958;-60
2022/10/01 09:23:07;;;;;;;;;;;;;;;26.13;43.11;94082.88;4971647;28;7252;-60
2022/10/01 09:25:36;;;;;;;;;;;;;;;26.11;42.62;94079.91;4977444;28;9733;-60
2022/10/01 09:28:17;;;;;;;;;;;;;;;26.13;42.73;94087.66;4975084;28;7264;-60
2022/10/01 09:31:16;;;;;;;;;;;;;;;26.10;43.64;94102.47;4973426;28;7602;-60
2022/10/01 09:34:09;;;;;;;;;;;;;;;26.08;43.03;94096.69;4864778;29;6998;-60
2022/10/01 09:37:05;;;;;;;;;;;;;;;26.07;43.05;94098.72;4861573;29;7224;-60
2022/10/01 09:40:15;;;;;;;;;;;;;;;26.06;43.07;94097.22;4874496;29;9002;-60
2022/10/01 09:42:44;;;;;;;;;;;;;;;26.05;43.11;94101.25;4848294;29;7274;-59
2022/10/01 09:45:24;;;;;;;;;;;;;;;26.05;42.85;94092.25;4874495;29;7249;-59
2022/10/01 09:47:54;;;;;;;;;;;;;;;26.04;43.58;94097.00;4872304;29;7279;-58
2022/10/01 09:50:38;;;;;;;;;;;;;;;26.01;43.39;94081.50;4875231;29;9209;-59
2022/10/01 09:53:15;;;;;;;;;;;;;;;26.00;43.96;94073.75;4860850;29;7144;-59
2022/10/01 09:55:57;;;;;;;;;;;;;;;25.98;43.62;94071.53;4878908;29;7242;-59
2022/10/01 09:58:27;;;;;;;;;;;;;;;25.97;43.66;94075.53;4922646;28;8728;-59
2022/10/01 10:00:59;;;;;;;;;;;;;;;25.96;43.66;94076.06;4982520;28;6986;-59
2022/10/01 10:03:36;;;;;;;;;;;;;;;25.94;43.50;94086.88;4972596;28;10282;-59
2022/10/01 10:06:05;;;;;;;;;;;;;;;25.93;43.46;94088.88;4976293;28;7147;-59
2022/10/01 10:08:41;;;;;;;;;;;;;;;25.90;43.26;94076.13;4972304;28;7155;-59
2022/10/01 10:11:22;;;;;;;;;;;;;;;25.89;43.19;94088.44;5048192;28;7250;-59
2022/10/01 10:14:19;;;;;;;;;;;;;;;25.89;43.76;94090.44;5059861;28;7005;-59
2022/10/01 10:16:51;;;;;;;;;;;;;;;25.86;43.53;94094.97;5044689;28;7072;-59
2022/10/01 10:19:24;;;;;;;;;;;;;;;25.86;43.67;94088.72;5063194;28;7519;-59
2022/10/01 10:21:56;;;;;;;;;;;;;;;25.86;44.07;94111.50;5078931;28;9113;-59
2022/10/01 10:24:48;;;;;;;;;;;;;;;25.85;44.72;94107.25;5037781;28;7432;-59
2022/10/01 10:27:25;;;;;;;;;;;;;;;25.82;44.23;94115.81;4978672;28;7223;-59
2022/10/01 10:30:16;;;;;;;;;;;;;;;25.82;44.81;94124.06;4989028;28;7229;-59
2022/10/01 10:32:51;;;;;;;;;;;;;;;25.81;44.63;94120.59;4991351;28;7267;-59
2022/10/01 10:35:24;;;;;;;;;;;;;;;25.78;44.68;94118.13;4989817;28;7340;-59
2022/10/01 10:37:59;;;;;;;;;;;;;;;25.78;44.57;94110.59;4974796;28;7763;-59
2022/10/01 10:40:31;;;;;;;;;;;;;;;25.77;44.96;94102.88;4991697;28;7172;-59
2022/10/01 10:43:00;;;;;;;;;;;;;;;25.75;44.36;94111.63;4975525;28;7582;-59
2022/10/01 10:45:37;;;;;;;;;;;;;;;25.74;44.88;94099.13;4977378;28;9461;-58
2022/10/01 10:48:11;;;;;;;;;;;;;;;25.74;44.04;94112.16;4978193;28;7501;-59
2022/10/01 10:50:41;;;;;;;;;;;;;;;25.73;44.38;94111.41;4970492;28;9060;-59
2022/10/01 10:53:21;;;;;;;;;;;;;;;25.72;44.33;94123.69;4978165;28;8092;-59
2022/10/01 10:55:55;;;;;;;;;;;;;;;25.73;44.11;94130.69;4988489;28;7993;-59
2022/10/01 10:58:28;;;;;;;;;;;;;;;25.71;43.82;94130.47;4995073;28;7077;-59
2022/10/01 11:01:03;;;;;;;;;;;;;;;25.71;44.07;94138.00;4996632;28;7272;-58
2022/10/01 11:03:34;;;;;;;;;;;;;;;25.68;44.83;94137.03;5002152;28;7561;-59
2022/10/01 11:06:18;;;;;;;;;;;;;;;25.66;44.72;94123.03;5048066;28;7492;-59
2022/10/01 11:08:55;;;;;;;;;;;;;;;25.67;43.77;94130.00;5044693;28;7221;-59
2022/10/01 11:11:33;;;;;;;;;;;;;;;25.65;44.26;94120.75;5073177;28;7314;-59
2022/10/01 11:14:19;;;;;;;;;;;;;;;25.63;44.40;94134.31;5080728;28;9397;-59
2022/10/01 11:16:58;;;;;;;;;;;;;;;25.63;44.07;94137.81;5071095;28;7235;-59
2022/10/01 11:19:54;;;;;;;;;;;;;;;25.63;45.07;94129.56;5066274;28;8550;-59
2022/10/01 11:22:39;;;;;;;;;;;;;;;25.63;44.87;94137.81;5045782;28;8410;-60
2022/10/01 11:25:40;;;;;;;;;;;;;;;25.63;45.06;94140.56;5062489;28;7037;-60
2022/10/01 11:28:27;;;;;;;;;;;;;;;25.61;44.13;94143.09;5053043;28;7230;-60
2022/10/01 11:31:30;;;;;;;;;;;;;;;25.59;44.46;94134.59;5063257;28;7138;-60
2022/10/01 11:34:36;;;;;;;;;;;;;;;25.59;44.55;94122.84;5070171;28;7226;-60
2022/10/01 11:37:36;;;;;;;;;;;;;;;25.56;44.22;94130.13;5072949;28;8376;-60
2022/10/01 11:40:16;;;;;;;;;;;;;;;25.56;44.73;94135.63;5051820;28;7211;-60
2022/10/01 11:42:48;;;;;;;;;;;;;;;25.58;44.42;94126.88;5067204;28;9103;-60
2022/10/01 11:45:29;;;;;;;;;;;;;;;25.56;44.81;94119.09;5065970;28;7271;-59
2022/10/01 11:48:05;;;;;;;;;;;;;;;25.56;44.92;94113.59;5038665;28;7374;-60
2022/10/01 11:50:41;;;;;;;;;;;;;;;25.58;44.48;94121.38;5052228;28;6974;-60
2022/10/01 11:53:16;;;;;;;;;;;;;;;25.57;44.75;94122.63;5048796;28;7396;-60
2022/10/01 11:59:30;;;;;;;;;;;;;;;25.55;44.39;94111.38;5060137;28;7782;-60
2022/10/01 12:02:34;;;;;;;;;;;;;;;25.56;44.99;94130.13;4993395;28;9036;-60
2022/10/01 12:05:30;;;;;;;;;;;;;;;25.55;44.23;94117.63;4949000;28;7240;-60
2022/10/01 12:08:10;;;;;;;;;;;;;;;25.52;44.57;94118.66;4949389;28;6944;-60
2022/10/01 12:10:58;;;;;;;;;;;;;;;25.56;44.10;94132.13;4935682;28;7044;-60
2022/10/01 12:13:33;;;;;;;;;;;;;;;25.52;43.83;94115.16;4935404;28;8534;-60
2022/10/01 12:16:36;;;;;;;;;;;;;;;25.54;44.25;94142.91;4933377;29;7006;-60
2022/10/01 12:19:20;;;;;;;;;;;;;;;25.51;43.80;94147.47;4915663;29;9336;-60
2022/10/01 12:21:58;;;;;;;;;;;;;;;25.51;44.29;94144.72;4930300;29;7180;-60
2022/10/01 12:24:39;;;;;;;;;;;;;;;25.50;44.39;94162.47;4927508;28;9043;-60
2022/10/01 12:27:46;;;;;;;;;;;;;;;25.50;44.15;94168.00;4908182;29;8809;-60
2022/10/01 12:30:28;;;;;;;;;;;;;;;25.50;43.62;94161.72;4917957;29;7795;-60
2022/10/01 12:33:07;;;;;;;;;;;;;;;25.48;43.87;94169.75;4927506;29;7516;-60
2022/10/01 12:35:56;;;;;;;;;;;;;;;25.47;43.89;94166.25;4924935;29;7030;-59
2022/10/01 12:38:47;;;;;;;;;;;;;;;25.47;44.62;94163.50;4961253;28;7272;-60
2022/10/01 12:41:38;;;;;;;;;;;;;;;25.46;43.97;94153.00;4985354;28;9433;-60
2022/10/01 12:44:37;;;;;;;;;;;;;;;25.43;44.19;94165.81;5011489;28;7230;-60
2022/10/01 12:47:35;;;;;;;;;;;;;;;25.41;44.06;94160.03;4998608;28;7068;-60
2022/10/01 12:50:06;;;;;;;;;;;;;;;25.39;44.66;94148.78;4976309;28;6926;-60
2022/10/01 12:52:54;;;;;;;;;;;;;;;25.37;44.38;94143.81;4995840;28;9401;-60
2022/10/01 12:55:53;;;;;;;;;;;;;;;25.36;44.89;94149.81;5014479;28;7407;-59
2022/10/01 12:58:55;;;;;;;;;;;;;;;25.36;44.38;94147.06;5049693;28;7952;-60
2022/10/01 13:01:29;;;;;;;;;;;;;;;25.34;44.55;94153.09;5062827;28;7270;-60
2022/10/01 13:04:29;;;;;;;;;;;;;;;25.37;43.87;94162.31;5054705;28;9083;-60
2022/10/01 13:07:26;;;;;;;;;;;;;;;25.37;44.43;94171.34;5064644;28;7003;-60
2022/10/01 13:10:17;;;;;;;;;;;;;;;25.38;44.18;94164.56;5063601;28;7059;-59
2022/10/01 13:13:12;;;;;;;;;;;;;;;25.34;44.59;94146.81;5070062;28;9084;-60
2022/10/01 13:15:46;;;;;;;;;;;;;;;25.35;44.23;94153.84;5069870;28;7114;-60
2022/10/01 13:18:24;;;;;;;;;;;;;;;25.32;44.08;94154.84;5051506;28;9384;-60
2022/10/01 13:20:53;;;;;;;;;;;;;;;25.32;44.22;94163.88;5055471;28;7002;-60
2022/10/01 13:23:57;;;;;;;;;;;;;;;25.31;44.29;94162.41;5061346;28;7702;-60
2022/10/01 13:27:02;;;;;;;;;;;;;;;25.31;44.04;94170.66;5078418;28;9122;-60
2022/10/01 13:29:34;;;;;;;;;;;;;;;25.31;44.48;94170.66;5084313;28;8219;-60
2022/10/01 13:32:03;;;;;;;;;;;;;;;25.29;44.58;94162.13;5063049;28;7204;-60
2022/10/01 13:34:41;;;;;;;;;;;;;;;25.27;44.14;94164.66;5055460;28;8373;-60
2022/10/01 13:37:18;;;;;;;;;;;;;;;25.28;44.52;94155.16;5039617;28;7246;-60
2022/10/01 13:39:47;;;;;;;;;;;;;;;25.27;44.59;94158.44;5051804;28;7894;-60
2022/10/01 13:42:47;;;;;;;;;;;;;;;25.27;45.01;94155.66;5055102;28;7505;-60
2022/10/01 13:45:26;;;;;;;;;;;;;;;25.25;44.64;94160.94;4997998;28;9120;-59
2022/10/01 13:48:05;;;;;;;;;;;;;;;25.25;44.35;94169.22;4991263;28;6987;-60
2022/10/01 13:50:34;;;;;;;;;;;;;;;25.25;44.24;94169.94;5011444;28;7004;-60
2022/10/01 13:53:20;;;;;;;;;;;;;;;25.26;44.53;94189.94;4996510;28;9043;-60
2022/10/01 13:55:47;;;;;;;;;;;;;;;25.23;44.21;94191.72;4995516;28;7790;-60
2022/10/01 13:58:28;;;;;;;;;;;;;;;25.25;44.80;94200.22;4988879;28;8931;-60
2022/10/01 14:01:37;;;;;;;;;;;;;;;25.23;44.26;94205.47;4986769;28;9850;-60
2022/10/01 14:04:17;;;;;;;;;;;;;;;25.28;44.44;94223.22;5004141;28;9083;-60
2022/10/01 14:07:17;;;;;;;;;;;;;;;25.30;44.30;94226.19;5004620;28;6998;-60
2022/10/01 14:10:02;;;;;;;;;;;;;;;25.27;43.99;94238.25;4976966;28;7133;-60
2022/10/01 14:15:57;;;;;;;;;;;;;;;25.23;45.19;94233.00;4967831;28;7205;-60
2022/10/01 14:18:33;;;;;;;;;;;;;;;25.19;45.62;94234.53;4966276;28;7289;-60